Aviation Digital Data Service (ADDS)

Output produced by METARs form (1844 UTC 27 July 2017)
found at http://aviationweather.gov/adds/metars/
 
KJHW 271724Z 2718/2818 VRB03KT P6SM BKN090 
     FM272100 VRB03KT P6SM VCSH BKN060 
     FM280000 00000KT P6SM FEW090 
     FM280800 VRB03KT 1SM BR FEW018 SCT060 
     FM281200 07006KT P6SM BKN045 
     FM281600 06009KT P6SM BKN060 AMD LTD TO CLD VIS AND WIND